. : TABULKA : . . : GRAFY : . . : METAR : .


.: METAR informace z letišť v ČR :.

LKPR - Prague/Ruzyne, Czech Republic
Distance from station: WNW 188km
Updated: Sat, 20-Oct-2018 4:37am CEST
Mist, Mostly cloudy
Mist, Mostly cloudy
 Wind from N
Wind: N 4 km/h
Temperature: 10°C
Dew Point: 10°C
Humidity: 100%
Barometer: 1025 hPa
Summary: Mist
Clouds: Mostly Cloudy
Visibility: 5 km
Cloud details: Partly Cloudy 91 m
Mostly Cloudy 396 m
2018/10/20 02:37 LKPR 200237Z 35002KT 5000 BR SCT003 BKN013 10/10 Q1025 RMK REG QNH 1021
LKTB - Brno/Turany, Czech Republic
Distance from station: S 28km
Updated: Sat, 20-Oct-2018 4:30am CEST
Mist, Shallow, Fog, Few clouds
Mist, Shallow, Fog, Few clouds
 Wind from NW
Wind: NW 9 km/h
Temperature: 7°C
Wind Chill: 6°C
Dew Point: 6°C
Humidity: 93%
Barometer: 1024 hPa
Summary: Mist, Shallow, Fog
Clouds: Few Clouds
Visibility: 1 km
Cloud details: Few Clouds 274 m
2018/10/20 02:30 LKTB 200230Z 32005KT 1200 R27/0250N BR MIFG FEW009 07/06 Q1024 TEMPO 800 FG
 
LKMT - Ostrava/Mosnov, Czech Republic
Distance from station: ENE 112km
Updated: Sat, 20-Oct-2018 4:30am CEST
Mist, Overcast
Mist, Overcast
 Wind from NE
Wind: NE 7 km/h
Temperature: 10°C
Wind Chill: 9°C
Dew Point: 9°C
Humidity: 94%
Barometer: 1024 hPa
Summary: Mist
Clouds: Overcast
Visibility: 1 km
Cloud details: Overcast 122 m
2018/10/20 02:30 LKMT 200230Z 05004KT 1200 R22/P2000N R04/P2000N BR OVC004 10/09 Q1024 NOSIG
LKPD - Pardubice, Czech Republic
Distance from station: NW 96km
Updated: Sat, 20-Oct-2018 4:00am CEST
Mist, Overcast
Mist, Overcast
 Wind from calm
Wind: Calm
Temperature: 8°C
Dew Point: 7°C
Humidity: 93%
Barometer: 1025 hPa
Summary: Mist
Clouds: Overcast
Visibility: 2 km
Cloud details: Mostly Cloudy 122 m
Overcast 1524 m
2018/10/20 02:00 LKPD 200200Z 00000KT 1800 BR BKN004 OVC050 08/07 Q1025
 
LKNA - Namest, Czech Republic
Distance from station: WSW 45km
Updated: Sat, 20-Oct-2018 4:00am CEST
Fog, Overcast
Fog, Overcast
 Wind from NNW
Wind: NNW 7 km/h
Temperature: 5°C
Wind Chill: 3°C
Dew Point: 5°C
Humidity: 100%
Barometer: 1024 hPa
Summary: Fog
Clouds: Overcast
Visibility: 0 km
Cloud details: Overcast 30 m
2018/10/20 02:00 LKNA 200200Z 34004KT 0100 R31/0100D FG VV001 05/05 Q1024
LKKU - Kunovice, Czech Republic
Distance from station: ESE 70km
Updated: Fri, 19-Oct-2018 4:00pm CEST
NOT Current
Haze, Partly cloudy
Haze, Partly cloudy
 Wind from N
Wind: N 28 km/h
Temperature: 15°C
Dew Point: 10°C
Humidity: 72%
Barometer: 1021 hPa
Summary: Haze
Clouds: Partly Cloudy
Visibility: 5 km
2018/10/19 14:00 LKKU 191400Z 01015KT 270V050 5000 HZ NSC 15/10 Q1021
 
LKCV - Caslav, Czech Republic
Distance from station: NW 109km
Updated: Sat, 20-Oct-2018 4:00am CEST
Mist, Overcast
Mist, Overcast
 Wind from varies
Wind: varies 2 km/h
Temperature: 9°C
Dew Point: 9°C
Humidity: 100%
Barometer: 1025 hPa
Summary: Mist
Clouds: Overcast
Visibility: 3 km
Cloud details: Overcast 122 m
2018/10/20 02:00 LKCV 200200Z VRB01KT 3000 BR OVC004 09/09 Q1025 NOSIG
LKKB - Kbely, Czech Republic
Distance from station: WNW 171km
Updated: Sat, 20-Oct-2018 4:00am CEST
Mist, Overcast
Mist, Overcast
 Wind from SW
Wind: SW 7 km/h
Temperature: 9°C
Wind Chill: 8°C
Dew Point: 8°C
Humidity: 94%
Barometer: 1025 hPa
Summary: Mist
Clouds: Overcast
Visibility: 3 km
Cloud details: Partly Cloudy 91 m
Overcast 152 m
2018/10/20 02:00 LKKB 200200Z 23004KT 2500 BR SCT003 OVC005 09/08 Q1025
 
LKVO - Vodochody, Czech Republic
Distance from station: WNW 185km
Updated: Fri, 19-Oct-2018 4:00pm CEST
NOT Current
Mostly Cloudy
Mostly Cloudy
 Wind from varies
Wind: varies 9 km/h
Temperature: 15°C
Dew Point: 10°C
Humidity: 72%
Barometer: 1023 hPa
Clouds: Mostly Cloudy
Visibility: 10 km
Cloud details: Partly Cloudy 549 m
Mostly Cloudy 1311 m
2018/10/19 14:00 LKVO 191400Z VRB05KT 9999 SCT018 BKN043 15/10 Q1023

Metar display script from Saratoga-Weather.org